Αρχική σελίδα
METAR-TAF:

METAR-TAF

Αεροδρόμια :

Αβάνα, Κούβα

γεωγραφικό πλάτος: 22-59N, γεωγραφικό μήκος: 082-24W, υψόμετρο: 59 μ

Παρών καιρός

Η αναφορά έγινε 36 λεπτά πριν, στις 00:55 UTC
Άνεμος 2 kt από Α
Θερμοκρασία 20°C
Υγρασία 83%
Πίεση 1017 hPa
Ορατότητα: 9000 μ
Λίγα νέφη σε ύψος 4000 πόδια

METAR: MUHA 190055Z 09002KT 9000 FEW040 20/17 Q1017

Χρόνος: 20:31 (01:31 UTC)

Πρόγνωση Καιρού

Η αναφορά έγινε 2 ώρες και 31 λεπτά πριν, στις 23:00 UTC
Η πρόγνωση ισχύει από τις 19 στις 00 UTC έως τις 19 στις 24 UTC
Άνεμος 5 kt από Α
Ορατότητα: 9000 μ
Λίγα νέφη σε ύψος 3000 πόδια
Καθιστάμενος
από 19 στις 13 UTC έως τις 19 στις 15 UTC
Άνεμος 10 kt από Ν/NA

TAF: MUHA 182300Z 1900/1924 08005KT 9000 FEW030 BECMG 1913/1915 16010KT

Μετεωρολογικές αναφορές και προγνώσεις για περισσότερα από 4000 αεροδρόμια (δελτία METAR και TAF).

Οι διαθέσιμοι σταθμοί απεικονίζονται στο χάρτη με κίτρινες και κόκκινες κουκκίδες.

Μετακινήστε το ποντίκι πάνω από τις κουκκίδες για να δείτε το όνομα του σταθμού.

Στη συνέχεια, κάντε κλικ για να δείτε τις μετεωρολογικές αναφορές και τις προγνώσεις καιρού.

Για να αλλάξετε το χάρτη: κάντε κλικ στα πράσινα κουμπιά με τον μαύρο σταυρό για να ζουμάρετε, στο πράσινο κουμπί με την παύλα για να αφαιρέσετε το ζουμ ή στα πράσινα βέλη για να αντιπαραβάλλετε χάρτες.


METAR-TAF: